createdAt,value
2018-05-10T01:01:18.173Z,7.70
2018-05-10T01:03:45.669Z,10.07
2018-05-10T01:06:14.059Z,7.20
2018-05-10T01:08:41.720Z,7.03
2018-05-10T01:11:09.383Z,7.67
2018-05-10T01:13:37.072Z,7.83
2018-05-10T01:16:04.589Z,11.10
2018-05-10T01:18:32.840Z,8.70
2018-05-10T01:21:00.706Z,8.57
2018-05-10T01:23:28.327Z,11.73
2018-05-10T01:25:55.852Z,9.63
2018-05-10T01:28:23.330Z,12.27
2018-05-10T01:30:50.991Z,9.17
2018-05-10T01:33:18.639Z,12.30
2018-05-10T01:35:58.585Z,9.33
2018-05-10T01:38:26.862Z,8.80
2018-05-10T01:40:55.127Z,9.60
2018-05-10T01:43:22.630Z,12.87
2018-05-10T01:45:50.126Z,8.97
2018-05-10T01:48:19.449Z,12.10
2018-05-10T01:50:46.956Z,9.03
2018-05-10T01:53:14.457Z,11.70
2018-05-10T01:55:42.245Z,8.00
2018-05-10T01:58:09.747Z,11.07
2018-05-10T02:00:37.231Z,7.63
2018-05-10T02:03:05.449Z,9.97
2018-05-10T02:05:32.944Z,7.20
2018-05-10T02:08:00.567Z,6.83
2018-05-10T02:10:28.057Z,7.07
2018-05-10T02:12:55.546Z,9.30
2018-05-10T02:15:23.284Z,7.00
2018-05-10T02:17:50.777Z,8.77
2018-05-10T02:20:19.393Z,6.43
2018-05-10T02:22:47.021Z,6.37
2018-05-10T02:25:14.510Z,6.60
2018-05-10T02:27:42.374Z,8.60
2018-05-10T02:30:09.869Z,5.83
2018-05-10T02:32:37.512Z,8.13
2018-05-10T02:35:06.068Z,6.27
2018-05-10T02:37:33.564Z,6.40
2018-05-10T02:40:01.057Z,8.13
2018-05-10T02:42:30.033Z,6.33
2018-05-10T02:44:57.561Z,6.83
2018-05-10T02:47:25.183Z,7.97
2018-05-10T02:49:52.673Z,6.03
2018-05-10T02:52:20.723Z,8.97
2018-05-10T02:54:48.209Z,6.37
2018-05-10T02:57:15.823Z,6.40
2018-05-10T02:59:43.892Z,6.30
2018-05-10T03:02:11.373Z,8.67
2018-05-10T03:04:39.178Z,6.47
2018-05-10T03:07:06.676Z,9.17
2018-05-10T03:09:34.169Z,6.50
2018-05-10T03:12:01.826Z,7.10
2018-05-10T03:14:29.313Z,6.57
2018-05-10T03:16:57.121Z,7.00
2018-05-10T03:19:25.493Z,7.27
2018-05-10T03:21:55.873Z,6.77
2018-05-10T03:24:23.474Z,9.60
2018-05-10T03:26:50.959Z,6.77
2018-05-10T03:29:18.622Z,6.53
2018-05-10T03:31:46.257Z,6.50
2018-05-10T03:34:13.959Z,6.50
2018-05-10T03:36:41.784Z,6.40
2018-05-10T03:39:09.448Z,6.03
2018-05-10T03:41:37.376Z,6.40
2018-05-10T03:44:04.858Z,9.03
2018-05-10T03:46:32.362Z,6.10
2018-05-10T03:48:59.852Z,6.13
2018-05-10T03:51:27.334Z,6.27
2018-05-10T03:53:55.422Z,8.70
2018-05-10T03:56:23.667Z,6.40
2018-05-10T03:58:51.178Z,8.90
2018-05-10T04:01:24.885Z,6.47
2018-05-10T04:04:04.817Z,9.00
2018-05-10T04:06:44.435Z,6.33
2018-05-10T04:09:24.916Z,8.40
2018-05-10T04:11:52.401Z,5.93
2018-05-10T04:14:19.974Z,8.33
2018-05-10T04:16:47.890Z,5.70
2018-05-10T04:19:15.407Z,8.43
2018-05-10T04:21:43.208Z,5.40
2018-05-10T04:24:10.881Z,8.30
2018-05-10T04:26:38.367Z,5.77
2018-05-10T04:29:06.001Z,5.40
2018-05-10T04:31:33.654Z,7.63
2018-05-10T04:34:01.140Z,5.60
2018-05-10T04:36:28.622Z,5.40
2018-05-10T04:38:56.437Z,5.70
2018-05-10T04:41:24.313Z,5.40
2018-05-10T04:43:51.972Z,5.80
2018-05-10T04:46:20.443Z,5.73
2018-05-10T04:48:47.937Z,5.10
2018-05-10T04:51:15.773Z,7.23
2018-05-10T04:53:43.443Z,5.20
2018-05-10T04:56:10.937Z,5.53
2018-05-10T04:58:38.756Z,7.10
2018-05-10T05:01:07.003Z,5.40
2018-05-10T05:03:34.512Z,6.77
2018-05-10T05:06:02.157Z,4.63
2018-05-10T05:08:29.681Z,4.60
2018-05-10T05:10:58.678Z,4.70
2018-05-10T05:13:26.166Z,6.63
2018-05-10T05:15:53.656Z,4.80
2018-05-10T05:18:25.345Z,4.70
2018-05-10T05:20:53.381Z,4.73
2018-05-10T05:23:21.855Z,4.50
2018-05-10T05:25:49.349Z,6.10
2018-05-10T05:28:17.191Z,4.57
2018-05-10T05:30:47.756Z,5.93
2018-05-10T05:33:16.083Z,3.60
2018-05-10T05:35:43.633Z,5.80
2018-05-10T05:38:11.117Z,4.03
2018-05-10T09:35:39.650Z,4.10
2018-05-10T09:38:07.166Z,4.00
2018-05-10T09:40:35.445Z,3.80
2018-05-10T09:43:03.746Z,4.07
2018-05-10T09:45:31.249Z,3.80
2018-05-10T09:47:59.565Z,3.70
2018-05-10T09:50:27.988Z,4.10
2018-05-10T09:52:55.494Z,3.60
2018-05-10T09:55:23.807Z,4.10
2018-05-10T09:57:51.347Z,4.07
2018-05-10T10:00:24.934Z,3.73
2018-05-10T10:02:52.459Z,3.83
2018-05-10T10:05:20.590Z,4.20
2018-05-10T10:07:48.401Z,3.90
2018-05-10T10:10:16.580Z,3.83
2018-05-10T10:12:44.082Z,3.63
2018-05-10T10:15:14.645Z,3.67
2018-05-10T10:17:42.287Z,3.70
2018-05-10T10:20:09.788Z,3.60
2018-05-10T10:22:38.339Z,3.50
2018-05-10T10:25:05.852Z,4.30
2018-05-10T10:27:33.364Z,3.93
2018-05-10T10:30:00.885Z,3.60
2018-05-10T10:32:28.749Z,4.20
2018-05-10T10:34:56.617Z,4.57
2018-05-10T10:37:24.159Z,4.40
2018-05-10T10:39:52.810Z,4.97
2018-05-10T10:42:20.896Z,5.23
2018-05-10T10:44:49.865Z,4.87
2018-05-10T10:47:18.378Z,4.53
2018-05-10T10:49:46.779Z,3.57
2018-05-10T10:52:14.273Z,3.30
2018-05-10T10:54:41.782Z,3.13
2018-05-10T10:57:09.473Z,3.03
2018-05-10T10:59:37.647Z,3.40
2018-05-10T11:02:05.148Z,3.33
2018-05-10T11:04:32.678Z,3.30
2018-05-10T11:07:00.192Z,3.20
2018-05-10T11:09:27.702Z,3.10
2018-05-10T11:11:55.193Z,3.17
2018-05-10T11:14:22.687Z,4.10
2018-05-10T11:16:50.176Z,4.43
2018-05-10T11:19:17.849Z,2.83
2018-05-10T11:21:45.379Z,2.97
2018-05-10T11:24:12.883Z,3.33
2018-05-10T11:26:41.165Z,3.20
2018-05-10T11:29:08.664Z,3.20
2018-05-10T11:31:36.414Z,2.70
2018-05-10T11:34:03.913Z,2.90
2018-05-10T11:36:31.789Z,3.30
2018-05-10T11:38:59.384Z,3.60
2018-05-10T11:41:26.829Z,2.87
2018-05-10T11:43:55.850Z,3.13
2018-05-10T11:46:23.337Z,3.20
2018-05-10T11:48:50.817Z,3.40
2018-05-10T11:51:18.301Z,3.03
2018-05-10T11:53:45.820Z,4.90
2018-05-10T11:56:14.045Z,2.80
2018-05-10T11:58:41.730Z,5.57
2018-05-10T12:01:09.289Z,3.10
2018-05-10T12:03:36.796Z,3.30
2018-05-10T12:06:04.529Z,2.80
2018-05-10T12:08:32.945Z,3.20
2018-05-10T12:11:01.229Z,3.30
2018-05-10T12:13:28.737Z,2.80
2018-05-10T12:15:56.346Z,2.77
2018-05-10T12:18:25.182Z,2.93
2018-05-10T12:20:52.698Z,3.20
2018-05-10T12:23:20.204Z,3.20
2018-05-10T12:25:48.048Z,2.93
2018-05-10T12:28:15.553Z,3.73
2018-05-10T12:30:43.053Z,3.00
2018-05-10T12:33:10.601Z,3.40
2018-05-10T12:35:39.270Z,3.40
2018-05-10T12:38:07.025Z,3.40
2018-05-10T12:40:35.241Z,4.20
2018-05-10T12:43:02.791Z,3.40
2018-05-10T12:45:30.340Z,3.30
2018-05-10T12:47:57.851Z,3.70
2018-05-10T12:50:25.376Z,3.60
2018-05-10T12:52:52.907Z,3.07
2018-05-10T12:55:20.507Z,3.50
2018-05-10T12:57:48.063Z,3.30
2018-05-10T13:00:15.550Z,3.27
2018-05-10T13:02:43.196Z,3.60
2018-05-10T13:05:10.749Z,2.90
2018-05-10T13:07:38.253Z,3.17
2018-05-10T13:10:05.948Z,3.23
2018-05-10T13:12:34.513Z,3.50
2018-05-10T13:15:02.217Z,3.20
2018-05-10T13:17:30.362Z,2.90
2018-05-10T13:19:58.143Z,3.20
2018-05-10T13:22:25.650Z,3.17
2018-05-10T13:24:53.168Z,3.73
2018-05-10T13:27:20.737Z,3.70
2018-05-10T13:29:48.215Z,3.27
2018-05-10T13:32:15.696Z,3.40
2018-05-10T13:34:44.308Z,3.40
2018-05-10T13:37:11.875Z,3.30
2018-05-10T13:39:39.378Z,2.60
2018-05-10T13:42:07.190Z,2.60
2018-05-10T13:44:35.054Z,2.80
2018-05-10T13:47:02.945Z,2.67
2018-05-10T13:49:31.970Z,2.50
2018-05-10T13:51:59.701Z,3.00
2018-05-10T13:54:27.226Z,2.40
2018-05-10T13:56:55.529Z,2.60
2018-05-10T13:59:23.121Z,2.77
2018-05-10T14:01:52.924Z,2.80
2018-05-10T14:04:20.867Z,2.80
2018-05-10T14:06:48.372Z,2.57
2018-05-10T14:09:17.355Z,2.70
2018-05-10T14:11:44.865Z,2.70
2018-05-10T14:14:12.371Z,2.70
2018-05-10T14:16:39.934Z,2.53
2018-05-10T14:19:07.410Z,2.57
2018-05-10T14:21:38.677Z,2.70
2018-05-10T14:24:06.931Z,2.50
2018-05-10T14:26:34.521Z,2.40
2018-05-10T14:29:02.017Z,2.30
2018-05-10T14:31:29.514Z,2.30
2018-05-10T14:33:57.775Z,2.23
2018-05-10T14:36:25.293Z,2.50
2018-05-10T14:38:52.792Z,2.30
2018-05-10T14:41:21.063Z,2.23
2018-05-10T14:43:48.694Z,2.30
2018-05-10T14:46:16.190Z,2.13
2018-05-10T14:48:43.924Z,2.57
2018-05-10T14:51:11.425Z,2.43
2018-05-10T14:53:38.949Z,2.13
2018-05-10T14:56:06.437Z,2.30
2018-05-10T14:58:34.031Z,2.27
2018-05-10T15:01:01.533Z,2.30
2018-05-10T15:03:29.027Z,2.30
2018-05-10T15:05:57.579Z,2.17
2018-05-10T15:08:25.070Z,2.13
2018-05-10T15:10:52.565Z,2.10
2018-05-10T15:13:20.096Z,2.33
2018-05-10T15:15:47.593Z,2.20
2018-05-10T15:18:15.098Z,2.17
2018-05-10T15:20:42.699Z,2.10
2018-05-10T15:23:10.343Z,2.47
2018-05-10T15:25:37.916Z,1.80
2018-05-10T15:28:05.405Z,2.17
2018-05-10T15:30:32.886Z,3.30
2018-05-10T15:33:00.398Z,2.47
2018-05-10T15:35:31.738Z,1.93
2018-05-10T15:37:59.502Z,2.40
2018-05-10T15:40:27.076Z,2.60
2018-05-10T15:42:54.595Z,2.40
2018-05-10T15:45:22.912Z,2.27
2018-05-10T15:47:51.559Z,2.33
2018-05-10T15:50:19.138Z,2.30
2018-05-10T15:52:47.406Z,2.50
2018-05-10T15:55:14.895Z,2.27
2018-05-10T15:57:44.179Z,2.50
2018-05-10T16:00:11.831Z,2.73
2018-05-10T16:02:39.340Z,2.57
2018-05-10T16:05:07.003Z,2.90
2018-05-10T16:07:34.933Z,2.53
2018-05-10T16:10:02.775Z,2.07
2018-05-10T16:12:30.422Z,2.10
2018-05-10T16:14:57.934Z,2.00
2018-05-10T16:17:26.173Z,1.60
2018-05-10T16:19:53.664Z,2.00
2018-05-10T16:22:21.310Z,1.87
2018-05-10T16:24:48.816Z,1.53
2018-05-10T16:27:16.316Z,1.67
2018-05-10T16:29:43.812Z,1.83
2018-05-10T16:32:12.217Z,1.63
2018-05-10T16:34:40.500Z,1.70
2018-05-10T16:37:08.086Z,1.40
2018-05-10T16:39:35.598Z,1.23
2018-05-10T16:42:03.206Z,1.40
2018-05-10T16:44:31.598Z,1.40
2018-05-10T16:47:15.730Z,1.50
2018-05-10T16:49:43.322Z,1.40
2018-05-10T16:52:10.870Z,1.30
2018-05-10T16:54:38.866Z,1.40
2018-05-10T16:57:06.381Z,1.30
2018-05-10T16:59:33.878Z,1.30
2018-05-10T17:02:01.384Z,1.40
2018-05-10T17:04:28.885Z,1.40
2018-05-10T17:06:56.361Z,1.20
2018-05-10T17:09:26.936Z,1.47
2018-05-10T17:11:54.481Z,1.23
2018-05-10T17:14:22.007Z,1.30
2018-05-10T17:16:50.124Z,1.50
2018-05-10T17:19:17.616Z,1.70
2018-05-10T17:24:41.125Z,1.67
2018-05-10T17:27:36.696Z,1.70
2018-05-10T17:30:04.201Z,1.60
2018-05-10T17:35:24.322Z,2.40
2018-05-10T17:40:38.423Z,1.70
2018-05-10T17:43:06.122Z,1.47
2018-05-10T17:45:34.645Z,1.70
2018-05-10T17:48:03.037Z,1.50
2018-05-10T17:50:34.601Z,1.63
2018-05-10T17:53:02.117Z,1.70
2018-05-10T17:58:19.912Z,1.73
2018-05-10T18:03:42.816Z,2.10
2018-05-10T18:06:10.616Z,1.70
2018-05-10T18:08:39.447Z,1.67
2018-05-10T18:28:11.670Z,1.50
2018-05-10T18:30:39.175Z,1.50
2018-05-10T18:33:06.730Z,2.07
2018-05-10T18:35:34.207Z,1.53
2018-05-10T18:38:02.498Z,1.50
2018-05-10T18:40:30.003Z,2.03
2018-05-10T18:42:57.674Z,1.60
2018-05-10T18:45:25.467Z,1.60
2018-05-10T18:47:53.376Z,1.60
2018-05-10T18:50:21.406Z,2.00
2018-05-10T18:52:48.935Z,1.70
2018-05-10T18:55:16.459Z,2.30
2018-05-10T18:57:43.950Z,1.80
2018-05-10T19:00:11.447Z,1.63
2018-05-10T19:02:38.986Z,1.60
2018-05-10T19:05:13.036Z,1.77
2018-05-10T19:07:41.125Z,1.57
2018-05-10T19:10:08.622Z,1.57
2018-05-10T19:12:36.184Z,2.10
2018-05-10T19:15:12.685Z,1.57
2018-05-10T19:17:40.754Z,1.33
2018-05-10T19:20:08.252Z,1.80
2018-05-10T19:22:35.883Z,1.80
2018-05-10T19:25:03.390Z,1.67
2018-05-10T19:27:43.113Z,1.73
2018-05-10T19:30:11.229Z,1.70
2018-05-10T19:32:38.916Z,2.13
2018-05-10T19:35:13.372Z,1.67
2018-05-10T19:37:42.041Z,1.73
2018-05-10T19:40:09.611Z,1.60
2018-05-10T19:42:37.137Z,1.90
2018-05-10T19:45:05.524Z,1.67
2018-05-10T19:47:33.079Z,2.20
2018-05-10T19:50:00.926Z,1.70
2018-05-10T19:52:28.503Z,2.50
2018-05-10T19:54:56.018Z,3.30
2018-05-10T19:57:24.639Z,2.97
2018-05-10T19:59:52.202Z,3.10
2018-05-10T20:02:19.767Z,4.40
2018-05-10T20:04:47.280Z,3.63
2018-05-10T20:07:14.806Z,3.67
2018-05-10T20:09:42.728Z,4.20
2018-05-10T20:12:10.257Z,4.60
2018-05-10T20:14:37.790Z,5.00
2018-05-10T20:17:05.349Z,6.57
2018-05-10T20:19:33.231Z,4.97
2018-05-10T20:22:00.945Z,5.87
2018-05-10T20:24:29.020Z,6.60
2018-05-10T20:26:56.691Z,7.57
2018-05-10T20:29:24.240Z,10.07
2018-05-10T20:31:51.724Z,8.00
2018-05-10T20:34:19.933Z,8.13
2018-05-10T20:36:47.437Z,8.30
2018-05-10T20:39:14.999Z,9.03
2018-05-10T20:41:42.695Z,8.80
2018-05-10T20:44:10.190Z,11.43
2018-05-10T20:46:38.757Z,9.13
2018-05-10T20:49:06.270Z,9.47
2018-05-10T20:51:34.092Z,9.60
2018-05-10T20:54:01.691Z,10.00
2018-05-10T20:56:29.213Z,11.97
2018-05-10T20:58:56.748Z,9.10
2018-05-10T21:01:24.922Z,11.77
2018-05-10T21:03:52.767Z,8.60
2018-05-10T21:06:20.273Z,9.97
2018-05-10T21:08:47.817Z,7.53
2018-05-10T21:11:16.132Z,10.23
2018-05-10T21:13:43.907Z,7.23
2018-05-10T21:16:11.750Z,6.50
2018-05-10T21:18:39.336Z,7.93
2018-05-10T21:21:07.892Z,6.10
2018-05-10T21:23:35.409Z,8.37
2018-05-10T21:26:03.257Z,5.93
2018-05-10T21:28:30.759Z,8.30
2018-05-10T21:30:58.313Z,6.37
2018-05-10T21:33:26.080Z,8.50
2018-05-10T21:35:53.636Z,6.03
2018-05-10T21:38:23.653Z,7.03
2018-05-10T21:40:51.937Z,6.87
2018-05-10T21:43:20.212Z,8.07
2018-05-10T21:45:47.694Z,6.23
2018-05-10T21:48:15.269Z,6.37
2018-05-10T21:50:42.789Z,6.77
2018-05-10T21:53:11.095Z,8.10
2018-05-10T21:55:39.317Z,6.97
